MSC Sinfonia — H8XH — position and weather

sailwx.info

Track history (hours):
 
Tides and Currents Weather Stations Pressure Air Temp Water Temp Dewpoint Dewpoint Depression Visibility Wind Speed Wind Dir Waves Ship Positions

MSC Sinfonia

Last reported at 2018-Feb-19 15:31 UTC. Time now 2018-Feb-22 08:56 UTC.
Position S 29°32' E 031°38'.

Length 251 m; draft 6.8 m.

Type: Passenger vessel. MMSI: 356715971.

Date/timePositionNaut miles runAvg speedWind from/ knotsBaromVisibWave heightAir tempDewpointWater temp
2018-Feb-19 15:31S 29°32' E 031°38'014.4
2018-Feb-19 15:30S 29°32' E 031°37'714.4
2018-Feb-19 15:01S 29°37' E 031°32'714.4
2018-Feb-19 14:30S 29°42' E 031°26'714.6
2018-Feb-19 14:00S 29°47' E 031°19'714.7
2018-Feb-19 13:30S 29°49' E 031°11'714.1
2018-Feb-19 13:00S 29°52' E 031°04'1 2.5
2018-Feb-19 12:27S 29°52' E 031°02'0 0.0
2018-Feb-19 11:57S 29°52' E 031°02'0 0.0
2018-Feb-19 11:27S 29°52' E 031°02'0 0.0
2018-Feb-19 10:51S 29°52' E 031°02'0 0.0
2018-Feb-19 10:27S 29°52' E 031°02'0 0.0
2018-Feb-19 09:57S 29°52' E 031°02'0 0.0
2018-Feb-19 09:27S 29°52' E 031°02'0 0.0
2018-Feb-19 08:57S 29°52' E 031°02'0 0.0
2018-Feb-19 08:21S 29°52' E 031°02'0 0.0
2018-Feb-19 07:45S 29°52' E 031°02'0 0.0
2018-Feb-19 07:18S 29°52' E 031°02'0 0.0
2018-Feb-19 06:57S 29°52' E 031°02'0 0.0
2018-Feb-19 06:27S 29°52' E 031°02'0 0.0
2018-Feb-19 05:57S 29°52' E 031°02'0 0.0
2018-Feb-19 05:30S 29°52' E 031°02'0 0.0
2018-Feb-19 04:57S 29°52' E 031°02'0 0.0
2018-Feb-19 04:27S 29°52' E 031°02'0 0.0
2018-Feb-19 03:57S 29°52' E 031°02'0 0.0
2018-Feb-19 03:21S 29°52' E 031°02'0 0.3
2018-Feb-19 03:00S 29°52' E 031°02'4 8.3
2018-Feb-19 02:30S 29°50' E 031°06'3 5.3
2018-Feb-19 02:00S 29°49' E 031°09'3 5.9
2018-Feb-19 01:30S 29°49' E 031°12'3 5.6
2018-Feb-19 01:00S 29°48' E 031°15'3 5.2
2018-Feb-19 00:30S 29°48' E 031°18'3 5.3
2018-Feb-19 00:00S 29°47' E 031°21'3 5.5
2018-Feb-18 23:30S 29°45' E 031°23'3 5.6
2018-Feb-18 23:00S 29°43' E 031°25'3 5.7
2018-Feb-18 22:30S 29°41' E 031°27'3 5.1
2018-Feb-18 22:00S 29°39' E 031°30'3 6.4
2018-Feb-18 21:30S 29°37' E 031°32'3 6.9
2018-Feb-18 21:00S 29°34' E 031°35'3 6.9
2018-Feb-18 20:30S 29°32' E 031°38'4 7.0
2018-Feb-18 20:00S 29°29' E 031°41'4 7.4
2018-Feb-18 19:30S 29°26' E 031°44'22 0.4
2018-Feb-16 16:25S 29°11' E 032°02'816.0
2018-Feb-16 15:56S 29°16' E 031°55'1216.8
2018-Feb-16 15:14S 29°25' E 031°46'417.9
2018-Feb-16 14:59S 29°28' E 031°43'917.7
2018-Feb-16 14:30S 29°34' E 031°36'918.0
2018-Feb-16 14:00S 29°40' E 031°29'917.7
2018-Feb-16 13:30S 29°46' E 031°21'917.2
2018-Feb-16 13:00S 29°49' E 031°11'714.1
2018-Feb-16 12:30S 29°52' E 031°04'2 2.8
2018-Feb-16 11:56S 29°52' E 031°02'0 0.0
2018-Feb-16 11:26S 29°52' E 031°02'0 0.0
2018-Feb-16 10:56S 29°52' E 031°02'0 0.0
2018-Feb-16 10:29S 29°52' E 031°02'0 0.0
2018-Feb-16 09:56S 29°52' E 031°02'0 0.0
2018-Feb-16 09:20S 29°52' E 031°02'0 0.0
2018-Feb-16 08:59S 29°52' E 031°02'0 0.0
2018-Feb-16 08:20S 29°52' E 031°02'0 0.0
2018-Feb-16 07:38S 29°52' E 031°02'0 0.0
2018-Feb-16 07:26S 29°52' E 031°02'0 0.0
2018-Feb-16 06:56S 29°52' E 031°02'0 0.0
2018-Feb-16 06:26S 29°52' E 031°02'0 0.0
2018-Feb-16 05:56S 29°52' E 031°02'0 0.0
2018-Feb-16 05:26S 29°52' E 031°02'0 0.0
2018-Feb-16 04:53S 29°52' E 031°02'0 0.0
2018-Feb-16 04:29S 29°52' E 031°02'0 0.0
2018-Feb-16 03:56S 29°52' E 031°02'0 0.0
2018-Feb-16 03:23S 29°52' E 031°02'0 0.4
2018-Feb-16 03:00S 29°52' E 031°02'4 8.7
2018-Feb-16 02:30S 29°50' E 031°06'611.2
2018-Feb-16 02:00S 29°49' E 031°12'611.5
2018-Feb-16 01:30S 29°49' E 031°19'510.1
2018-Feb-16 01:01S 29°45' E 031°23'510.0
2018-Feb-16 00:30S 29°41' E 031°27'5 9.8
2018-Feb-16 00:00S 29°38' E 031°31'510.1
2018-Feb-15 23:30S 29°34' E 031°35'5 9.9
2018-Feb-15 23:00S 29°31' E 031°39'510.1
2018-Feb-15 22:30S 29°27' E 031°43'510.5
2018-Feb-15 22:00S 29°23' E 031°47'  
2018-Feb-12 14:50S 29°28' E 031°42'618.0
2018-Feb-12 14:30S 29°32' E 031°37'918.1
2018-Feb-12 14:01S 29°38' E 031°30'917.8
2018-Feb-12 13:31S 29°45' E 031°23'917.0
2018-Feb-12 13:01S 29°48' E 031°14'816.3
2018-Feb-12 12:30S 29°51' E 031°05'3 5.6
2018-Feb-12 11:59S 29°52' E 031°02'0 0.0
2018-Feb-12 11:26S 29°52' E 031°02'0 0.0
2018-Feb-12 10:53S 29°52' E 031°02'0 0.0
2018-Feb-12 10:29S 29°52' E 031°02'0 0.0
2018-Feb-12 09:56S 29°52' E 031°02'0 0.0
2018-Feb-12 09:29S 29°52' E 031°02'0 0.0
2018-Feb-12 08:59S 29°52' E 031°02'0 0.0
2018-Feb-12 08:02S 29°52' E 031°02'0 0.0
2018-Feb-12 07:44S 29°52' E 031°02'0 0.0
2018-Feb-12 07:29S 29°52' E 031°02'0 0.0
2018-Feb-12 06:56S 29°52' E 031°02'0 0.0
2018-Feb-12 06:11S 29°52' E 031°02'0 0.0
2018-Feb-12 05:56S 29°52' E 031°02'0 0.0
2018-Feb-12 05:20S 29°52' E 031°02'0 0.0
2018-Feb-12 04:56S 29°52' E 031°02'0 0.0
2018-Feb-12 04:20S 29°52' E 031°02'0 0.0
2018-Feb-12 03:56S 29°52' E 031°02'0 0.0
2018-Feb-12 03:29S 29°52' E 031°02'0 0.2
2018-Feb-12 03:01S 29°52' E 031°02'4 7.2
2018-Feb-12 02:30S 29°50' E 031°05'3 6.8
2018-Feb-12 02:00S 29°49' E 031°09'3 6.7
2018-Feb-12 01:30S 29°49' E 031°13'3 7.0
2018-Feb-12 01:00S 29°48' E 031°17'4 7.1
2018-Feb-12 00:30S 29°47' E 031°21'4 7.4
2018-Feb-12 00:00S 29°44' E 031°24'4 7.3
2018-Feb-11 23:30S 29°42' E 031°27'4 7.4
2018-Feb-11 23:00S 29°39' E 031°30'4 7.5
2018-Feb-11 22:30S 29°36' E 031°33'4 7.4
2018-Feb-11 22:00S 29°34' E 031°35'4 7.8
2018-Feb-11 21:30S 29°31' E 031°38'4 7.8
2018-Feb-11 21:00S 29°28' E 031°41'  
Track history (hours):
 
Tides and Currents Weather Stations Pressure Air Temp Water Temp Dewpoint Dewpoint Depression Visibility Wind Speed Wind Dir Waves Ship Positions

MSC Sinfonia

Last reported at 2018-Feb-19 15:31 UTC. Time now 2018-Feb-22 08:56 UTC.
Position S 29°32' E 031°38'.

Length 251 m; draft 6.8 m.

Type: Passenger vessel. MMSI: 356715971.

Date/timePositionNaut miles runAvg speedWind from/ knotsBaromVisibWave heightAir tempDewpointWater temp
2018-Feb-19 15:31S 29°32' E 031°38'014.4
2018-Feb-19 15:30S 29°32' E 031°37'714.4
2018-Feb-19 15:01S 29°37' E 031°32'714.4
2018-Feb-19 14:30S 29°42' E 031°26'714.6
2018-Feb-19 14:00S 29°47' E 031°19'714.7
2018-Feb-19 13:30S 29°49' E 031°11'714.1
2018-Feb-19 13:00S 29°52' E 031°04'1 2.5
2018-Feb-19 12:27S 29°52' E 031°02'0 0.0
2018-Feb-19 11:57S 29°52' E 031°02'0 0.0
2018-Feb-19 11:27S 29°52' E 031°02'0 0.0
2018-Feb-19 10:51S 29°52' E 031°02'0 0.0
2018-Feb-19 10:27S 29°52' E 031°02'0 0.0
2018-Feb-19 09:57S 29°52' E 031°02'0 0.0
2018-Feb-19 09:27S 29°52' E 031°02'0 0.0
2018-Feb-19 08:57S 29°52' E 031°02'0 0.0
2018-Feb-19 08:21S 29°52' E 031°02'0 0.0
2018-Feb-19 07:45S 29°52' E 031°02'0 0.0
2018-Feb-19 07:18S 29°52' E 031°02'0 0.0
2018-Feb-19 06:57S 29°52' E 031°02'0 0.0
2018-Feb-19 06:27S 29°52' E 031°02'0 0.0
2018-Feb-19 05:57S 29°52' E 031°02'0 0.0
2018-Feb-19 05:30S 29°52' E 031°02'0 0.0
2018-Feb-19 04:57S 29°52' E 031°02'0 0.0
2018-Feb-19 04:27S 29°52' E 031°02'0 0.0
2018-Feb-19 03:57S 29°52' E 031°02'0 0.0
2018-Feb-19 03:21S 29°52' E 031°02'0 0.3
2018-Feb-19 03:00S 29°52' E 031°02'4 8.3
2018-Feb-19 02:30S 29°50' E 031°06'3 5.3
2018-Feb-19 02:00S 29°49' E 031°09'3 5.9
2018-Feb-19 01:30S 29°49' E 031°12'3 5.6
2018-Feb-19 01:00S 29°48' E 031°15'3 5.2
2018-Feb-19 00:30S 29°48' E 031°18'3 5.3
2018-Feb-19 00:00S 29°47' E 031°21'3 5.5
2018-Feb-18 23:30S 29°45' E 031°23'3 5.6
2018-Feb-18 23:00S 29°43' E 031°25'3 5.7
2018-Feb-18 22:30S 29°41' E 031°27'3 5.1
2018-Feb-18 22:00S 29°39' E 031°30'3 6.4
2018-Feb-18 21:30S 29°37' E 031°32'3 6.9
2018-Feb-18 21:00S 29°34' E 031°35'3 6.9
2018-Feb-18 20:30S 29°32' E 031°38'4 7.0
2018-Feb-18 20:00S 29°29' E 031°41'4 7.4
2018-Feb-18 19:30S 29°26' E 031°44'22 0.4
2018-Feb-16 16:25S 29°11' E 032°02'816.0
2018-Feb-16 15:56S 29°16' E 031°55'1216.8
2018-Feb-16 15:14S 29°25' E 031°46'417.9
2018-Feb-16 14:59S 29°28' E 031°43'917.7
2018-Feb-16 14:30S 29°34' E 031°36'918.0
2018-Feb-16 14:00S 29°40' E 031°29'917.7
2018-Feb-16 13:30S 29°46' E 031°21'917.2
2018-Feb-16 13:00S 29°49' E 031°11'714.1
2018-Feb-16 12:30S 29°52' E 031°04'2 2.8
2018-Feb-16 11:56S 29°52' E 031°02'0 0.0
2018-Feb-16 11:26S 29°52' E 031°02'0 0.0
2018-Feb-16 10:56S 29°52' E 031°02'0 0.0
2018-Feb-16 10:29S 29°52' E 031°02'0 0.0
2018-Feb-16 09:56S 29°52' E 031°02'0 0.0
2018-Feb-16 09:20S 29°52' E 031°02'0 0.0
2018-Feb-16 08:59S 29°52' E 031°02'0 0.0
2018-Feb-16 08:20S 29°52' E 031°02'0 0.0
2018-Feb-16 07:38S 29°52' E 031°02'0 0.0
2018-Feb-16 07:26S 29°52' E 031°02'0 0.0
2018-Feb-16 06:56S 29°52' E 031°02'0 0.0
2018-Feb-16 06:26S 29°52' E 031°02'0 0.0
2018-Feb-16 05:56S 29°52' E 031°02'0 0.0
2018-Feb-16 05:26S 29°52' E 031°02'0 0.0
2018-Feb-16 04:53S 29°52' E 031°02'0 0.0
2018-Feb-16 04:29S 29°52' E 031°02'0 0.0
2018-Feb-16 03:56S 29°52' E 031°02'0 0.0
2018-Feb-16 03:23S 29°52' E 031°02'0 0.4
2018-Feb-16 03:00S 29°52' E 031°02'4 8.7
2018-Feb-16 02:30S 29°50' E 031°06'611.2
2018-Feb-16 02:00S 29°49' E 031°12'611.5
2018-Feb-16 01:30S 29°49' E 031°19'510.1
2018-Feb-16 01:01S 29°45' E 031°23'510.0
2018-Feb-16 00:30S 29°41' E 031°27'5 9.8
2018-Feb-16 00:00S 29°38' E 031°31'510.1
2018-Feb-15 23:30S 29°34' E 031°35'5 9.9
2018-Feb-15 23:00S 29°31' E 031°39'510.1
2018-Feb-15 22:30S 29°27' E 031°43'510.5
2018-Feb-15 22:00S 29°23' E 031°47'  
2018-Feb-12 14:50S 29°28' E 031°42'618.0
2018-Feb-12 14:30S 29°32' E 031°37'918.1
2018-Feb-12 14:01S 29°38' E 031°30'917.8
2018-Feb-12 13:31S 29°45' E 031°23'917.0
2018-Feb-12 13:01S 29°48' E 031°14'816.3
2018-Feb-12 12:30S 29°51' E 031°05'3 5.6
2018-Feb-12 11:59S 29°52' E 031°02'0 0.0
2018-Feb-12 11:26S 29°52' E 031°02'0 0.0
2018-Feb-12 10:53S 29°52' E 031°02'0 0.0
2018-Feb-12 10:29S 29°52' E 031°02'0 0.0
2018-Feb-12 09:56S 29°52' E 031°02'0 0.0
2018-Feb-12 09:29S 29°52' E 031°02'0 0.0
2018-Feb-12 08:59S 29°52' E 031°02'0 0.0
2018-Feb-12 08:02S 29°52' E 031°02'0 0.0
2018-Feb-12 07:44S 29°52' E 031°02'0 0.0
2018-Feb-12 07:29S 29°52' E 031°02'0 0.0
2018-Feb-12 06:56S 29°52' E 031°02'0 0.0
2018-Feb-12 06:11S 29°52' E 031°02'0 0.0
2018-Feb-12 05:56S 29°52' E 031°02'0 0.0
2018-Feb-12 05:20S 29°52' E 031°02'0 0.0
2018-Feb-12 04:56S 29°52' E 031°02'0 0.0
2018-Feb-12 04:20S 29°52' E 031°02'0 0.0
2018-Feb-12 03:56S 29°52' E 031°02'0 0.0
2018-Feb-12 03:29S 29°52' E 031°02'0 0.2
2018-Feb-12 03:01S 29°52' E 031°02'4 7.2
2018-Feb-12 02:30S 29°50' E 031°05'3 6.8
2018-Feb-12 02:00S 29°49' E 031°09'3 6.7
2018-Feb-12 01:30S 29°49' E 031°13'3 7.0
2018-Feb-12 01:00S 29°48' E 031°17'4 7.1
2018-Feb-12 00:30S 29°47' E 031°21'4 7.4
2018-Feb-12 00:00S 29°44' E 031°24'4 7.3
2018-Feb-11 23:30S 29°42' E 031°27'4 7.4
2018-Feb-11 23:00S 29°39' E 031°30'4 7.5
2018-Feb-11 22:30S 29°36' E 031°33'4 7.4
2018-Feb-11 22:00S 29°34' E 031°35'4 7.8
2018-Feb-11 21:30S 29°31' E 031°38'4 7.8
2018-Feb-11 21:00S 29°28' E 031°41'  

Dump ship's entire track history